createdAt,value
2019-05-17T00:00:28.970Z,91.80
2019-05-17T00:02:57.030Z,91.90
2019-05-17T00:05:23.375Z,92.10
2019-05-17T00:07:49.535Z,92.20
2019-05-17T00:10:17.370Z,91.80
2019-05-17T00:12:43.548Z,91.70
2019-05-17T00:15:09.899Z,92.00
2019-05-17T00:17:37.824Z,92.30
2019-05-17T00:20:06.288Z,92.20
2019-05-17T00:22:32.511Z,92.00
2019-05-17T00:24:58.581Z,92.20
2019-05-17T00:27:26.467Z,92.20
2019-05-17T00:29:52.659Z,92.10
2019-05-17T00:32:18.701Z,92.30
2019-05-17T00:34:46.877Z,92.40
2019-05-17T00:37:12.793Z,92.20
2019-05-17T00:39:38.829Z,92.70
2019-05-17T00:42:07.045Z,92.50
2019-05-17T00:44:32.846Z,92.70
2019-05-17T00:46:58.995Z,92.60
2019-05-17T00:49:26.400Z,92.70
2019-05-17T00:51:52.584Z,92.30
2019-05-17T00:54:18.602Z,92.30
2019-05-17T00:56:46.392Z,92.80
2019-05-17T00:59:12.616Z,92.50
2019-05-17T01:01:38.656Z,92.70
2019-05-17T01:04:06.678Z,92.90
2019-05-17T01:06:32.617Z,93.20
2019-05-17T01:09:01.772Z,93.30
2019-05-17T01:11:27.083Z,93.70
2019-05-17T01:13:55.793Z,93.50
2019-05-17T01:16:21.172Z,92.60
2019-05-17T01:18:47.316Z,92.60
2019-05-17T01:21:13.372Z,92.80
2019-05-17T01:23:39.404Z,92.90
2019-05-17T01:26:07.486Z,93.00
2019-05-17T01:28:33.482Z,92.20
2019-05-17T01:30:59.549Z,92.00
2019-05-17T01:33:26.445Z,92.30
2019-05-17T01:35:52.730Z,93.80
2019-05-17T01:38:18.750Z,93.70
2019-05-17T01:40:46.353Z,93.50
2019-05-17T01:43:12.540Z,92.70
2019-05-17T01:45:38.581Z,92.30
2019-05-17T01:48:07.024Z,92.70
2019-05-17T01:50:32.939Z,92.60
2019-05-17T01:52:58.986Z,92.70
2019-05-17T01:55:26.538Z,92.70
2019-05-17T01:57:52.790Z,92.60
2019-05-17T02:00:19.022Z,92.50
2019-05-17T02:02:47.180Z,92.50
2019-05-17T02:05:13.800Z,93.00
2019-05-17T02:07:39.843Z,92.40
2019-05-17T02:10:07.436Z,92.40
2019-05-17T02:12:33.852Z,92.20
2019-05-17T02:14:59.928Z,92.70
2019-05-17T02:17:26.595Z,93.00
2019-05-17T02:19:52.832Z,92.80
2019-05-17T02:22:18.880Z,92.70
2019-05-17T02:24:46.432Z,92.50
2019-05-17T02:27:12.759Z,92.80
2019-05-17T02:29:38.791Z,93.00
2019-05-17T02:32:05.036Z,93.50
2019-05-17T02:34:33.733Z,93.60
2019-05-17T02:36:59.094Z,93.90
2019-05-17T02:39:25.171Z,93.30
2019-05-17T02:41:53.308Z,93.20
2019-05-17T02:44:19.173Z,93.80
2019-05-17T02:46:45.230Z,93.80
2019-05-17T02:49:13.768Z,93.90
2019-05-17T02:51:39.308Z,93.80
2019-05-17T02:54:05.473Z,93.70
2019-05-17T02:56:32.745Z,93.90
2019-05-17T02:58:59.582Z,93.80
2019-05-17T03:01:25.734Z,93.80
2019-05-17T03:03:52.947Z,93.60
2019-05-17T03:06:22.560Z,93.50
2019-05-17T03:08:47.231Z,93.40
2019-05-17T03:11:13.720Z,93.70
2019-05-17T03:13:43.193Z,93.50
2019-05-17T03:16:07.751Z,93.20
2019-05-17T03:18:33.938Z,93.10
2019-05-17T03:21:03.370Z,92.90
2019-05-17T03:23:28.107Z,93.20
2019-05-17T03:25:54.249Z,92.90
2019-05-17T03:28:23.413Z,93.50
2019-05-17T03:30:48.354Z,94.00
2019-05-17T03:33:16.494Z,93.60
2019-05-17T03:35:45.771Z,93.10
2019-05-17T03:38:14.065Z,93.10
2019-05-17T03:41:03.611Z,93.60
2019-05-17T03:43:07.846Z,93.60
2019-05-17T03:45:34.308Z,93.90
2019-05-17T03:48:04.655Z,94.30
2019-05-17T03:50:29.248Z,94.00
2019-05-17T03:52:55.435Z,93.60
2019-05-17T03:55:23.488Z,94.00
2019-05-17T03:57:52.993Z,94.00
2019-05-17T04:00:17.900Z,94.20
2019-05-17T04:02:44.890Z,94.60
2019-05-17T04:05:12.686Z,94.30
2019-05-17T04:07:39.068Z,94.30
2019-05-17T04:10:06.455Z,94.00
2019-05-17T04:12:32.842Z,94.10
2019-05-17T04:15:02.867Z,94.30
2019-05-17T04:17:26.918Z,94.40
2019-05-17T04:19:53.450Z,94.80
2019-05-17T04:22:19.735Z,94.80
2019-05-17T04:24:45.756Z,94.80
2019-05-17T04:27:13.590Z,94.90
2019-05-17T04:29:42.427Z,95.30
2019-05-17T04:32:07.673Z,95.60
2019-05-17T04:34:34.020Z,95.80
2019-05-17T04:37:00.432Z,96.00
2019-05-17T04:39:26.474Z,96.10
2019-05-17T04:41:54.883Z,96.50
2019-05-17T04:44:23.112Z,96.70
2019-05-17T04:46:48.462Z,96.90
2019-05-17T04:49:14.494Z,97.10
2019-05-17T04:51:43.714Z,97.50
2019-05-17T04:54:08.489Z,97.80
2019-05-17T04:56:34.610Z,97.90
2019-05-17T04:59:03.246Z,97.40
2019-05-17T05:01:28.906Z,97.30
2019-05-17T05:03:55.063Z,97.30
2019-05-17T05:06:23.346Z,97.30
2019-05-17T05:08:49.085Z,97.20
2019-05-17T05:11:15.131Z,97.10
2019-05-17T05:13:42.650Z,97.20
2019-05-17T05:16:08.834Z,97.40
2019-05-17T05:18:34.878Z,97.30
2019-05-17T05:21:03.502Z,97.30
2019-05-17T05:23:28.888Z,97.40
2019-05-17T05:25:55.024Z,97.80
2019-05-17T05:28:22.531Z,98.10
2019-05-17T05:30:48.725Z,98.50
2019-05-17T05:33:14.731Z,98.60
2019-05-17T05:35:42.465Z,99.40
2019-05-17T05:38:08.698Z,99.90
2019-05-17T05:40:34.715Z,99.90
2019-05-17T05:43:02.363Z,99.90
2019-05-17T05:45:28.584Z,99.60
2019-05-17T05:47:54.631Z,99.40
2019-05-17T05:50:21.838Z,99.30
2019-05-17T05:52:48.078Z,99.50
2019-05-17T05:55:14.307Z,99.80
2019-05-17T05:57:42.024Z,99.80
2019-05-17T06:00:12.672Z,99.90
2019-05-17T06:02:38.982Z,99.90
2019-05-17T06:05:07.322Z,99.90
2019-05-17T06:07:33.368Z,99.90
2019-05-17T06:10:02.022Z,99.90
2019-05-17T06:12:28.248Z,99.90
2019-05-17T06:14:54.438Z,99.90
2019-05-17T06:17:21.611Z,99.90
2019-05-17T06:19:47.816Z,99.90
2019-05-17T06:22:13.861Z,99.90
2019-05-17T06:24:42.350Z,99.90
2019-05-17T06:27:08.244Z,99.80
2019-05-17T06:29:34.280Z,99.70
2019-05-17T06:32:02.482Z,99.30
2019-05-17T06:34:28.266Z,99.30
2019-05-17T06:36:54.312Z,98.90
2019-05-17T06:39:22.399Z,98.70
2019-05-17T06:41:48.387Z,98.40
2019-05-17T06:44:14.419Z,98.00
2019-05-17T06:46:41.822Z,98.10
2019-05-17T06:49:08.199Z,98.00
2019-05-17T06:51:34.235Z,97.70
2019-05-17T06:54:01.797Z,97.70
2019-05-17T06:56:28.036Z,98.10
2019-05-17T06:58:54.095Z,97.60
2019-05-17T07:01:20.158Z,97.20
2019-05-17T07:03:46.196Z,97.30
2019-05-17T07:06:14.144Z,97.50
2019-05-17T07:08:40.300Z,97.20
2019-05-17T07:11:06.411Z,97.70
2019-05-17T07:13:32.461Z,97.30
2019-05-17T07:15:59.748Z,96.40
2019-05-17T07:18:26.166Z,95.80
2019-05-17T07:20:52.237Z,95.70
2019-05-17T07:23:19.711Z,95.60
2019-05-17T07:25:45.932Z,95.40
2019-05-17T07:28:11.990Z,95.30
2019-05-17T07:30:40.017Z,95.70
2019-05-17T07:33:10.064Z,94.90
2019-05-17T07:35:36.501Z,94.30
2019-05-17T07:38:02.632Z,94.30
2019-05-17T07:40:30.356Z,94.50
2019-05-17T07:43:07.845Z,94.20
2019-05-17T07:45:24.490Z,94.10
2019-05-17T07:47:50.562Z,94.30
2019-05-17T07:50:17.102Z,93.20
2019-05-17T07:52:43.291Z,92.70
2019-05-17T07:55:10.780Z,93.10
2019-05-17T07:57:37.276Z,93.40
2019-05-17T08:00:10.138Z,92.70
2019-05-17T08:02:35.726Z,92.80
2019-05-17T08:05:05.649Z,92.10
2019-05-17T08:07:31.702Z,92.50
2019-05-17T08:09:59.928Z,92.20
2019-05-17T08:12:25.697Z,92.30
2019-05-17T08:14:51.741Z,92.50
2019-05-17T08:17:19.818Z,92.70
2019-05-17T08:19:45.872Z,92.70
2019-05-17T08:22:12.022Z,92.10
2019-05-17T08:24:39.983Z,91.50
2019-05-17T08:27:10.838Z,91.70
2019-05-17T08:29:37.127Z,91.30
2019-05-17T08:32:03.277Z,90.90
2019-05-17T08:34:29.911Z,90.90
2019-05-17T08:36:55.964Z,90.20
2019-05-17T08:39:22.050Z,88.80
2019-05-17T08:41:49.751Z,90.00
2019-05-17T08:44:15.861Z,89.70
2019-05-17T08:46:42.047Z,90.20
2019-05-17T08:49:09.736Z,89.20
2019-05-17T08:51:36.169Z,88.90
2019-05-17T08:54:06.443Z,88.60
2019-05-17T08:56:34.906Z,87.90
2019-05-17T08:59:01.040Z,86.30
2019-05-17T09:01:27.095Z,85.50
2019-05-17T09:03:53.139Z,84.00
2019-05-17T09:06:22.449Z,83.70
2019-05-17T09:08:49.958Z,83.60
2019-05-17T09:11:16.212Z,80.90
2019-05-17T09:13:54.732Z,80.60
2019-05-17T09:16:10.788Z,81.00
2019-05-17T09:18:39.272Z,78.50
2019-05-17T09:21:05.071Z,79.00
2019-05-17T09:23:31.375Z,78.60
2019-05-17T09:25:59.380Z,77.90
2019-05-17T09:28:25.450Z,77.20
2019-05-17T09:30:51.494Z,77.40
2019-05-17T09:33:20.121Z,75.30
2019-05-17T09:35:46.059Z,76.10
2019-05-17T09:38:12.404Z,74.00
2019-05-17T09:40:40.281Z,73.50
2019-05-17T09:43:06.459Z,72.10
2019-05-17T09:45:32.890Z,74.60
2019-05-17T09:48:07.223Z,70.90
2019-05-17T09:50:33.358Z,69.50
2019-05-17T09:52:59.974Z,69.00
2019-05-17T09:55:26.231Z,70.50
2019-05-17T09:57:52.386Z,70.30
2019-05-17T10:00:20.831Z,68.40
2019-05-17T10:02:47.061Z,67.20
2019-05-17T10:05:13.187Z,66.20
2019-05-17T10:07:40.352Z,68.20
2019-05-17T10:10:06.923Z,66.40
2019-05-17T10:12:32.966Z,63.30
2019-05-17T10:15:00.521Z,65.00
2019-05-17T10:17:26.745Z,64.60
2019-05-17T10:19:52.878Z,64.80
2019-05-17T10:22:20.049Z,63.20
2019-05-17T10:24:46.189Z,62.20
2019-05-17T10:27:14.839Z,62.10
2019-05-17T10:29:44.085Z,62.30
2019-05-17T10:32:10.576Z,60.40
2019-05-17T10:34:40.075Z,61.80
2019-05-17T10:37:05.232Z,59.60
2019-05-17T10:39:31.296Z,58.70
2019-05-17T10:42:00.691Z,59.10
2019-05-17T10:44:40.971Z,59.10
2019-05-17T10:46:54.827Z,57.90
2019-05-17T10:49:20.865Z,58.10
2019-05-17T10:51:49.246Z,59.40
2019-05-17T10:54:14.913Z,58.00
2019-05-17T10:56:41.351Z,56.90
2019-05-17T10:59:09.662Z,56.50
2019-05-17T11:01:35.397Z,56.50
2019-05-17T11:04:04.546Z,54.90
2019-05-17T11:06:30.729Z,55.50
2019-05-17T11:08:56.781Z,54.00
2019-05-17T11:11:22.841Z,53.80
2019-05-17T11:13:48.886Z,53.30
2019-05-17T11:16:14.934Z,54.10
2019-05-17T11:18:41.120Z,53.20
2019-05-17T11:21:07.298Z,52.50
2019-05-17T11:23:33.529Z,53.20
2019-05-17T11:25:59.642Z,53.50
2019-05-17T11:28:27.653Z,52.90
2019-05-17T11:30:53.788Z,50.00
2019-05-17T11:33:19.863Z,51.30
2019-05-17T11:35:45.897Z,48.70
2019-05-17T11:38:12.014Z,48.30
2019-05-17T11:40:38.111Z,49.20
2019-05-17T11:43:05.454Z,50.10
2019-05-17T11:45:33.828Z,48.90
2019-05-17T11:48:00.165Z,49.30
2019-05-17T11:50:28.778Z,49.10
2019-05-17T11:52:54.937Z,48.90
2019-05-17T11:55:20.993Z,48.40
2019-05-17T11:57:47.093Z,46.70
2019-05-17T12:00:15.651Z,47.50
2019-05-17T12:02:41.750Z,47.10
2019-05-17T12:05:07.898Z,48.20
2019-05-17T12:07:34.053Z,48.20
2019-05-17T12:10:00.111Z,48.40
2019-05-17T12:12:26.135Z,48.60
2019-05-17T12:14:52.196Z,49.60
2019-05-17T12:17:18.399Z,49.40
2019-05-17T12:19:44.465Z,48.00
2019-05-17T12:22:10.501Z,47.50
2019-05-17T12:24:36.547Z,47.70
2019-05-17T12:27:02.818Z,49.30
2019-05-17T12:29:28.974Z,48.10
2019-05-17T12:31:55.048Z,49.30
2019-05-17T12:34:21.097Z,47.30
2019-05-17T12:36:47.127Z,47.40
2019-05-17T12:39:13.187Z,48.30
2019-05-17T12:41:39.210Z,48.00
2019-05-17T12:44:05.316Z,48.20
2019-05-17T12:46:31.475Z,47.70
2019-05-17T12:48:57.532Z,47.40
2019-05-17T12:51:23.555Z,47.20
2019-05-17T12:53:49.620Z,46.60
2019-05-17T12:56:15.687Z,46.90
2019-05-17T12:58:41.867Z,46.80
2019-05-17T13:01:07.909Z,45.90
2019-05-17T13:03:34.055Z,45.30
2019-05-17T13:06:00.136Z,45.40
2019-05-17T13:08:26.147Z,45.90
2019-05-17T13:10:52.254Z,45.90
2019-05-17T13:13:18.287Z,44.90
2019-05-17T13:15:44.393Z,45.50
2019-05-17T13:18:10.449Z,44.80
2019-05-17T13:20:36.543Z,44.20
2019-05-17T13:23:03.045Z,44.50
2019-05-17T13:25:29.376Z,45.20
2019-05-17T13:27:55.414Z,44.10
2019-05-17T13:30:21.663Z,45.10
2019-05-17T13:32:47.713Z,43.60
2019-05-17T13:35:15.607Z,44.30
2019-05-17T13:37:41.773Z,44.30
2019-05-17T13:40:08.227Z,43.80
2019-05-17T13:42:34.462Z,43.50
2019-05-17T13:45:00.505Z,43.10
2019-05-17T13:47:26.587Z,43.40
2019-05-17T13:49:52.679Z,44.30
2019-05-17T13:52:18.751Z,43.40
2019-05-17T13:54:46.971Z,42.60
2019-05-17T13:57:15.131Z,42.60
2019-05-17T13:59:58.127Z,43.20
2019-05-17T14:02:25.428Z,43.70
2019-05-17T14:04:56.956Z,43.40
2019-05-17T14:07:31.368Z,44.10
2019-05-17T14:09:57.519Z,43.70
2019-05-17T14:12:27.949Z,43.50
2019-05-17T14:14:54.734Z,44.20
2019-05-17T14:17:25.906Z,42.50
2019-05-17T14:19:52.181Z,43.60
2019-05-17T14:22:22.722Z,42.30
2019-05-17T14:24:54.536Z,43.10
2019-05-17T14:27:40.448Z,43.80
2019-05-17T14:30:08.637Z,42.60
2019-05-17T14:32:37.272Z,43.50
2019-05-17T14:35:04.345Z,40.60
2019-05-17T14:37:32.906Z,41.00
2019-05-17T14:39:59.128Z,40.00
2019-05-17T14:42:25.320Z,40.30
2019-05-17T14:44:55.420Z,40.60
2019-05-17T14:47:21.630Z,41.20
2019-05-17T14:49:51.095Z,40.90
2019-05-17T14:52:22.039Z,41.30
2019-05-17T14:54:50.747Z,40.70
2019-05-17T14:57:19.073Z,40.30
2019-05-17T14:59:45.693Z,41.10
2019-05-17T15:02:12.295Z,40.00
2019-05-17T15:04:39.439Z,43.20
2019-05-17T15:07:14.328Z,44.10
2019-05-17T15:09:49.094Z,44.70
2019-05-17T15:15:03.929Z,46.80
2019-05-17T15:17:21.486Z,47.50
2019-05-17T15:19:51.770Z,48.70
2019-05-17T15:22:35.849Z,49.10
2019-05-17T15:25:11.094Z,50.20
2019-05-17T15:27:45.000Z,51.00
2019-05-17T15:30:26.207Z,51.30
2019-05-17T15:33:00.932Z,51.80
2019-05-17T15:35:27.352Z,52.60
2019-05-17T15:38:12.448Z,53.80
2019-05-17T15:40:40.988Z,55.90
2019-05-17T15:43:07.871Z,57.70
2019-05-17T15:45:34.134Z,59.30
2019-05-17T15:48:00.159Z,61.30
2019-05-17T15:50:30.375Z,60.80
2019-05-17T15:52:56.404Z,61.00
2019-05-17T15:55:22.562Z,61.10
2019-05-17T15:57:48.683Z,67.00
2019-05-17T16:00:15.294Z,70.30
2019-05-17T16:02:50.789Z,75.90
2019-05-17T16:05:16.942Z,81.60
2019-05-17T16:07:48.256Z,82.90
2019-05-17T16:10:15.591Z,84.80
2019-05-17T16:13:00.857Z,86.60
2019-05-17T16:15:16.042Z,88.40
2019-05-17T16:17:47.062Z,89.80
2019-05-17T16:20:17.097Z,89.80
2019-05-17T16:22:47.664Z,91.40
2019-05-17T16:25:14.725Z,91.20
2019-05-17T16:27:55.881Z,91.40
2019-05-17T16:30:28.465Z,90.80
2019-05-17T16:32:54.792Z,90.80
2019-05-17T16:35:21.011Z,90.30
2019-05-17T16:37:50.023Z,90.50
2019-05-17T16:40:16.458Z,90.80
2019-05-17T16:42:42.901Z,91.10
2019-05-17T16:45:13.330Z,91.90
2019-05-17T16:47:39.563Z,93.60
2019-05-17T16:50:06.655Z,94.20
2019-05-17T16:52:38.795Z,94.80
2019-05-17T16:55:16.310Z,95.00
2019-05-17T16:57:49.016Z,94.80
2019-05-17T17:00:41.399Z,94.40
2019-05-17T17:03:12.994Z,93.70
2019-05-17T17:05:45.470Z,94.10
2019-05-17T17:08:11.689Z,94.40
2019-05-17T17:10:37.832Z,96.00
2019-05-17T17:13:04.349Z,96.50
2019-05-17T17:15:36.315Z,96.70
2019-05-17T17:18:09.379Z,96.60
2019-05-17T17:20:35.633Z,96.80
2019-05-17T17:23:03.573Z,96.30
2019-05-17T17:25:32.442Z,95.30
2019-05-17T17:27:58.575Z,95.80
2019-05-17T17:30:24.623Z,95.20
2019-05-17T17:32:58.318Z,95.40
2019-05-17T17:35:29.673Z,95.10
2019-05-17T17:37:55.883Z,95.00
2019-05-17T17:40:23.771Z,94.70
2019-05-17T17:42:49.893Z,93.00
2019-05-17T17:45:18.141Z,92.50
2019-05-17T17:47:44.217Z,92.80
2019-05-17T17:50:10.854Z,93.30
2019-05-17T17:52:36.910Z,93.10
2019-05-17T17:55:04.570Z,93.60
2019-05-17T17:57:30.728Z,93.00
2019-05-17T17:59:56.784Z,92.80
2019-05-17T18:02:29.542Z,93.30
2019-05-17T18:04:56.653Z,94.30
2019-05-17T18:07:22.915Z,95.50
2019-05-17T18:09:49.062Z,96.70
2019-05-17T18:12:15.116Z,96.10
2019-05-17T18:14:41.178Z,95.90
2019-05-17T18:17:07.257Z,96.10
2019-05-17T18:19:35.238Z,96.80
2019-05-17T18:22:01.454Z,96.50
2019-05-17T18:24:27.566Z,97.40
2019-05-17T18:26:53.666Z,97.70
2019-05-17T18:29:21.707Z,98.10
2019-05-17T18:31:48.895Z,98.20
2019-05-17T18:34:15.197Z,97.60
2019-05-17T18:36:41.405Z,97.20
2019-05-17T18:39:07.835Z,97.50
2019-05-17T18:41:33.924Z,97.70
2019-05-17T18:44:00.219Z,97.30
2019-05-17T18:46:26.303Z,96.80
2019-05-17T18:48:52.388Z,96.90
2019-05-17T18:51:18.862Z,97.50
2019-05-17T18:53:45.270Z,98.20
2019-05-17T18:56:11.468Z,98.30
2019-05-17T18:58:39.291Z,97.20
2019-05-17T19:01:05.531Z,96.80
2019-05-17T19:03:31.634Z,97.10
2019-05-17T19:05:57.760Z,96.70
2019-05-17T19:08:23.824Z,96.40
2019-05-17T19:10:49.867Z,96.40
2019-05-17T19:13:15.920Z,96.40
2019-05-17T19:15:42.692Z,96.50
2019-05-17T19:18:08.813Z,96.40
2019-05-17T19:20:34.830Z,97.10
2019-05-17T19:23:00.889Z,97.30
2019-05-17T19:25:27.026Z,97.40
2019-05-17T19:27:53.098Z,97.40
2019-05-17T19:30:19.408Z,97.80
2019-05-17T19:32:45.575Z,97.50
2019-05-17T19:35:11.832Z,97.00
2019-05-17T19:37:37.886Z,97.80
2019-05-17T19:40:06.205Z,97.70
2019-05-17T19:42:32.242Z,98.30
2019-05-17T19:44:59.567Z,98.20
2019-05-17T19:47:26.028Z,98.70
2019-05-17T19:49:52.140Z,98.30
2019-05-17T20:01:52.229Z,98.00
2019-05-17T20:04:29.550Z,98.20
2019-05-17T20:07:11.875Z,98.30
2019-05-17T20:12:45.697Z,99.00
2019-05-17T20:15:18.365Z,98.90
2019-05-17T20:18:03.571Z,98.40
2019-05-17T20:20:33.680Z,98.40
2019-05-17T20:23:06.040Z,98.50
2019-05-17T20:25:38.276Z,98.40
2019-05-17T20:28:04.428Z,98.30
2019-05-17T20:30:30.442Z,99.30
2019-05-17T20:32:56.475Z,99.80
2019-05-17T20:35:22.673Z,99.50
2019-05-17T20:37:48.700Z,99.20
2019-05-17T20:40:15.363Z,99.40
2019-05-17T20:42:41.444Z,99.70
2019-05-17T20:45:09.340Z,99.40
2019-05-17T20:47:35.569Z,99.60
2019-05-17T20:50:04.103Z,99.90
2019-05-17T20:52:30.125Z,99.70
2019-05-17T20:54:56.171Z,99.60
2019-05-17T20:57:22.287Z,99.40
2019-05-17T20:59:48.679Z,98.80
2019-05-17T21:02:14.835Z,99.00
2019-05-17T21:04:41.022Z,98.90
2019-05-17T21:07:07.072Z,99.00
2019-05-17T21:09:33.251Z,99.10
2019-05-17T21:11:59.414Z,98.90
2019-05-17T21:14:25.490Z,98.80
2019-05-17T21:16:51.649Z,98.90
2019-05-17T21:19:17.662Z,99.10
2019-05-17T21:21:43.859Z,99.10
2019-05-17T21:24:10.146Z,99.10
2019-05-17T21:26:36.381Z,99.30
2019-05-17T21:29:02.432Z,99.50
2019-05-17T21:31:28.967Z,99.80
2019-05-17T21:33:55.017Z,99.80
2019-05-17T21:36:21.063Z,99.50
2019-05-17T21:38:47.133Z,99.20
2019-05-17T21:41:13.251Z,99.00
2019-05-17T21:43:39.308Z,99.20
2019-05-17T21:46:05.476Z,99.10
2019-05-17T21:48:31.530Z,99.50
2019-05-17T21:50:57.672Z,99.70
2019-05-17T21:53:23.737Z,99.70
2019-05-17T21:55:49.791Z,99.50
2019-05-17T21:58:20.128Z,99.90
2019-05-17T22:01:02.344Z,99.90
2019-05-17T22:03:28.420Z,99.60
2019-05-17T22:05:54.514Z,99.40
2019-05-17T22:08:20.714Z,99.50
2019-05-17T22:10:47.391Z,99.50
2019-05-17T22:13:13.430Z,99.80
2019-05-17T22:15:39.493Z,99.90
2019-05-17T22:18:05.767Z,99.90
2019-05-17T22:20:31.852Z,99.90
2019-05-17T22:22:58.124Z,99.90
2019-05-17T22:25:24.201Z,99.90
2019-05-17T22:27:50.232Z,99.90
2019-05-17T22:30:16.399Z,99.90
2019-05-17T22:32:42.463Z,99.90
2019-05-17T22:35:08.609Z,99.90
2019-05-17T22:37:34.695Z,99.90
2019-05-17T22:40:00.789Z,99.90
2019-05-17T22:42:26.816Z,99.90
2019-05-17T22:44:52.883Z,99.90
2019-05-17T22:47:18.947Z,99.90
2019-05-17T22:49:45.116Z,99.90
2019-05-17T22:52:11.202Z,99.90
2019-05-17T22:54:37.226Z,99.90
2019-05-17T22:57:03.322Z,99.90
2019-05-17T22:59:29.353Z,99.90
2019-05-17T23:01:55.490Z,99.90
2019-05-17T23:04:21.521Z,99.90
2019-05-17T23:06:47.564Z,99.90
2019-05-17T23:09:13.602Z,99.90
2019-05-17T23:11:39.676Z,99.90
2019-05-17T23:14:05.726Z,99.90
2019-05-17T23:16:31.765Z,99.90
2019-05-17T23:19:10.134Z,99.90
2019-05-17T23:21:36.711Z,99.90
2019-05-17T23:24:03.357Z,99.90
2019-05-17T23:26:29.467Z,99.90
2019-05-17T23:28:55.563Z,99.90
2019-05-17T23:31:21.665Z,99.90
2019-05-17T23:33:47.706Z,99.90
2019-05-17T23:36:13.762Z,99.90
2019-05-17T23:38:39.809Z,99.90
2019-05-17T23:41:05.985Z,99.90
2019-05-17T23:43:32.126Z,99.90
2019-05-17T23:45:58.170Z,99.90
2019-05-17T23:48:24.215Z,99.90
2019-05-17T23:50:50.266Z,99.90
2019-05-17T23:53:16.298Z,99.90
2019-05-17T23:55:42.360Z,99.90
2019-05-17T23:58:08.411Z,99.90
